createdAt,value
2023-05-05T00:00:21.562Z,10.43
2023-05-05T00:01:44.524Z,10.33
2023-05-05T00:02:48.235Z,10.32
2023-05-05T00:03:51.193Z,10.33
2023-05-05T00:04:54.521Z,10.35
2023-05-05T00:05:58.104Z,10.38
2023-05-05T00:07:01.059Z,10.36
2023-05-05T00:08:04.248Z,10.32
2023-05-05T00:09:07.168Z,10.32
2023-05-05T00:10:10.641Z,10.26
2023-05-05T00:11:13.512Z,10.24
2023-05-05T00:12:16.487Z,10.24
2023-05-05T00:13:21.502Z,10.22
2023-05-05T00:14:24.347Z,10.20
2023-05-05T00:15:27.580Z,10.18
2023-05-05T00:16:30.621Z,10.17
2023-05-05T00:17:33.596Z,10.19
2023-05-05T00:18:36.518Z,10.15
2023-05-05T00:19:39.384Z,10.14
2023-05-05T00:20:42.974Z,10.14
2023-05-05T00:21:45.961Z,10.13
2023-05-05T00:22:48.909Z,10.14
2023-05-05T00:23:51.793Z,10.17
2023-05-05T00:24:54.670Z,10.17
2023-05-05T00:25:57.573Z,10.18
2023-05-05T00:27:02.258Z,10.19
2023-05-05T00:28:05.591Z,10.19
2023-05-05T00:29:08.617Z,10.17
2023-05-05T00:30:11.729Z,10.17
2023-05-05T00:31:18.073Z,10.15
2023-05-05T00:32:20.986Z,10.12
2023-05-05T00:33:24.150Z,10.12
2023-05-05T00:34:27.043Z,10.12
2023-05-05T00:35:29.856Z,10.15
2023-05-05T00:36:32.721Z,10.17
2023-05-05T00:37:36.127Z,10.17
2023-05-05T00:38:39.338Z,10.15
2023-05-05T00:39:42.180Z,10.12
2023-05-05T00:40:45.050Z,10.11
2023-05-05T00:41:47.903Z,10.05
2023-05-05T00:42:50.999Z,10.03
2023-05-05T00:43:54.191Z,10.00
2023-05-05T00:44:57.516Z,10.05
2023-05-05T00:46:04.084Z,10.08
2023-05-05T00:47:08.415Z,10.14
2023-05-05T00:48:11.659Z,10.15
2023-05-05T00:49:14.758Z,10.14
2023-05-05T00:50:23.762Z,10.15
2023-05-05T00:51:28.306Z,10.15
2023-05-05T00:52:31.563Z,10.12
2023-05-05T00:53:35.016Z,10.11
2023-05-05T00:54:38.363Z,10.10
2023-05-05T00:55:41.874Z,10.12
2023-05-05T00:56:45.982Z,10.08
2023-05-05T00:57:49.460Z,10.09
2023-05-05T00:58:52.405Z,10.07
2023-05-05T00:59:56.123Z,10.08
2023-05-05T01:00:59.067Z,10.08
2023-05-05T01:02:02.024Z,10.12
2023-05-05T01:03:05.705Z,10.08
2023-05-05T01:04:09.020Z,10.07
2023-05-05T01:05:14.545Z,10.10
2023-05-05T01:06:38.960Z,10.13
2023-05-05T01:07:50.112Z,10.07
2023-05-05T01:09:09.022Z,10.06
2023-05-05T01:10:41.046Z,10.03
2023-05-05T01:11:49.781Z,9.99
2023-05-05T01:13:13.984Z,10.02
2023-05-05T01:14:20.619Z,9.98
2023-05-05T01:15:37.737Z,9.99
2023-05-05T01:16:48.347Z,9.95
2023-05-05T01:17:59.682Z,10.00
2023-05-05T01:19:16.360Z,10.00
2023-05-05T01:20:29.167Z,9.99
2023-05-05T01:21:46.738Z,9.99
2023-05-05T01:22:59.824Z,9.99
2023-05-05T01:24:24.078Z,9.99
2023-05-05T01:26:02.653Z,9.98
2023-05-05T01:27:11.638Z,9.98
2023-05-05T01:29:00.846Z,10.04
2023-05-05T01:30:25.076Z,10.02
2023-05-05T01:31:43.059Z,10.02
2023-05-05T01:32:55.437Z,10.03
2023-05-05T01:34:06.423Z,10.03
2023-05-05T01:35:20.756Z,10.08
2023-05-05T01:36:35.351Z,10.03
2023-05-05T01:38:15.748Z,10.07
2023-05-05T01:39:20.069Z,10.02
2023-05-05T01:40:26.941Z,10.03
2023-05-05T01:41:46.657Z,10.09
2023-05-05T01:42:50.552Z,10.06
2023-05-05T01:43:57.150Z,10.08
2023-05-05T01:45:03.014Z,10.12
2023-05-05T01:46:08.230Z,10.11
2023-05-05T01:47:17.017Z,10.12
2023-05-05T01:48:21.184Z,10.13
2023-05-05T01:49:24.684Z,10.15
2023-05-05T01:50:29.415Z,10.13
2023-05-05T01:51:34.930Z,10.15
2023-05-05T01:52:41.319Z,10.16
2023-05-05T01:53:47.260Z,10.17
2023-05-05T01:54:51.366Z,10.14
2023-05-05T01:55:56.121Z,10.17
2023-05-05T01:56:59.744Z,10.15
2023-05-05T01:58:05.842Z,10.16
2023-05-05T01:59:10.537Z,10.17
2023-05-05T02:00:16.894Z,10.19
2023-05-05T02:01:26.187Z,10.18
2023-05-05T02:02:30.496Z,10.23
2023-05-05T02:03:35.626Z,10.21
2023-05-05T02:04:42.759Z,10.23
2023-05-05T02:05:47.615Z,10.24
2023-05-05T02:06:53.279Z,10.20
2023-05-05T02:07:59.739Z,10.26
2023-05-05T02:09:03.730Z,10.28
2023-05-05T02:10:08.215Z,10.24
2023-05-05T02:11:12.695Z,10.23
2023-05-05T02:12:18.621Z,10.27
2023-05-05T02:13:24.789Z,10.28
2023-05-05T02:14:29.645Z,10.31
2023-05-05T02:15:34.337Z,10.32
2023-05-05T02:16:41.381Z,10.32
2023-05-05T02:17:46.704Z,10.36
2023-05-05T02:18:50.867Z,10.34
2023-05-05T02:19:55.923Z,10.35
2023-05-05T02:20:58.991Z,10.40
2023-05-05T02:22:02.575Z,10.38
2023-05-05T02:23:07.907Z,10.37
2023-05-05T02:24:11.577Z,10.38
2023-05-05T02:25:14.891Z,10.31
2023-05-05T02:26:21.815Z,10.30
2023-05-05T02:27:26.834Z,10.33
2023-05-05T02:28:42.472Z,10.37
2023-05-05T02:29:52.094Z,10.33
2023-05-05T02:31:00.174Z,10.31
2023-05-05T02:32:12.168Z,10.32
2023-05-05T02:33:19.176Z,10.31
2023-05-05T02:34:27.662Z,10.32
2023-05-05T02:35:40.440Z,10.34
2023-05-05T02:36:47.856Z,10.36
2023-05-05T02:38:04.928Z,10.37
2023-05-05T02:39:20.665Z,10.37
2023-05-05T02:40:27.543Z,10.40
2023-05-05T02:41:33.638Z,10.43
2023-05-05T02:42:46.619Z,10.45
2023-05-05T02:43:51.266Z,10.43
2023-05-05T02:44:59.779Z,10.45
2023-05-05T02:46:03.218Z,10.47
2023-05-05T02:47:07.925Z,10.43
2023-05-05T02:48:13.075Z,10.42
2023-05-05T02:49:16.236Z,10.38
2023-05-05T02:50:20.178Z,10.38
2023-05-05T02:51:30.051Z,10.35
2023-05-05T02:52:35.618Z,10.38
2023-05-05T02:53:39.201Z,10.41
2023-05-05T02:54:42.071Z,10.38
2023-05-05T02:55:57.380Z,10.39
2023-05-05T02:57:03.163Z,10.35
2023-05-05T02:58:17.303Z,10.36
2023-05-05T02:59:29.872Z,10.34
2023-05-05T03:00:50.757Z,10.34
2023-05-05T03:02:07.759Z,10.34
2023-05-05T03:03:36.708Z,10.34
2023-05-05T03:04:43.128Z,10.36
2023-05-05T03:06:05.322Z,10.43
2023-05-05T03:07:15.921Z,10.38
2023-05-05T03:08:28.487Z,10.36
2023-05-05T03:09:41.639Z,10.35
2023-05-05T03:10:51.193Z,10.33
2023-05-05T03:12:00.989Z,10.38
2023-05-05T03:13:07.622Z,10.39
2023-05-05T03:14:18.381Z,10.37
2023-05-05T03:15:26.893Z,10.39
2023-05-05T03:16:35.266Z,10.38
2023-05-05T03:17:41.523Z,10.40
2023-05-05T03:18:50.046Z,10.39
2023-05-05T03:19:53.518Z,10.46
2023-05-05T03:20:57.166Z,10.47
2023-05-05T03:22:00.800Z,10.46
2023-05-05T03:23:04.212Z,10.46
2023-05-05T03:24:19.439Z,10.48
2023-05-05T03:25:46.107Z,10.46
2023-05-05T03:26:54.772Z,10.48
2023-05-05T03:27:59.533Z,10.51
2023-05-05T03:29:02.696Z,10.52
2023-05-05T03:30:07.493Z,10.54
2023-05-05T03:31:12.697Z,10.56
2023-05-05T03:32:16.443Z,10.58
2023-05-05T03:33:19.824Z,10.59
2023-05-05T03:34:22.995Z,10.59
2023-05-05T03:35:26.012Z,10.63
2023-05-05T03:36:29.745Z,10.65
2023-05-05T03:37:33.181Z,10.65
2023-05-05T03:38:36.478Z,10.62
2023-05-05T03:39:39.784Z,10.66
2023-05-05T03:40:44.559Z,10.64
2023-05-05T03:41:49.672Z,10.65
2023-05-05T03:42:53.047Z,10.63
2023-05-05T03:43:56.149Z,10.65
2023-05-05T03:44:59.031Z,10.65
2023-05-05T03:46:02.680Z,10.64
2023-05-05T03:47:06.058Z,10.63
2023-05-05T03:48:10.158Z,10.62
2023-05-05T03:49:14.360Z,10.62
2023-05-05T03:50:18.253Z,10.62
2023-05-05T03:51:21.363Z,10.63
2023-05-05T03:52:24.421Z,10.64
2023-05-05T03:53:27.664Z,10.68
2023-05-05T03:54:31.318Z,10.69
2023-05-05T03:55:34.309Z,10.72
2023-05-05T03:56:37.502Z,10.71
2023-05-05T03:57:40.388Z,10.75
2023-05-05T03:58:43.281Z,10.77
2023-05-05T03:59:46.686Z,10.80
2023-05-05T04:00:49.726Z,10.86
2023-05-05T04:01:53.559Z,10.85
2023-05-05T04:02:56.842Z,10.90
2023-05-05T04:04:00.088Z,10.91
2023-05-05T04:05:03.039Z,10.99
2023-05-05T04:06:06.136Z,11.01
2023-05-05T04:07:09.297Z,11.05
2023-05-05T04:08:12.372Z,11.08
2023-05-05T04:09:15.275Z,11.13
2023-05-05T04:10:18.656Z,11.13
2023-05-05T04:11:22.063Z,11.15
2023-05-05T04:12:24.984Z,11.21
2023-05-05T04:13:28.453Z,11.24
2023-05-05T04:14:31.442Z,11.26
2023-05-05T04:15:34.911Z,11.34
2023-05-05T04:16:37.925Z,11.35
2023-05-05T04:17:40.831Z,11.38
2023-05-05T04:18:44.465Z,11.44
2023-05-05T04:19:47.341Z,11.49
2023-05-05T04:20:50.253Z,11.52
2023-05-05T04:21:53.200Z,11.50
2023-05-05T04:22:56.137Z,11.51
2023-05-05T04:24:00.882Z,11.55
2023-05-05T04:25:04.213Z,11.57
2023-05-05T04:26:07.267Z,11.58
2023-05-05T04:27:10.351Z,11.61
2023-05-05T04:28:13.277Z,11.63
2023-05-05T04:29:16.505Z,11.65
2023-05-05T04:30:19.513Z,11.68
2023-05-05T04:31:22.500Z,11.75
2023-05-05T04:32:25.716Z,11.76
2023-05-05T04:33:28.684Z,11.83
2023-05-05T04:34:31.822Z,11.83
2023-05-05T04:35:34.814Z,11.92
2023-05-05T04:36:38.335Z,11.97
2023-05-05T04:37:41.860Z,11.98
2023-05-05T04:38:45.156Z,12.00
2023-05-05T04:39:48.510Z,12.04
2023-05-05T04:40:51.462Z,12.10
2023-05-05T04:41:54.385Z,12.13
2023-05-05T04:42:57.508Z,12.11
2023-05-05T04:44:00.402Z,12.18
2023-05-05T04:45:03.959Z,12.21
2023-05-05T04:46:07.128Z,12.24
2023-05-05T04:47:13.203Z,12.29
2023-05-05T04:48:17.612Z,12.31
2023-05-05T04:49:20.599Z,12.40
2023-05-05T04:50:23.490Z,12.40
2023-05-05T04:51:27.748Z,12.39
2023-05-05T04:52:30.823Z,12.41
2023-05-05T04:53:33.848Z,12.44
2023-05-05T04:54:37.516Z,12.51
2023-05-05T04:55:40.611Z,12.53
2023-05-05T04:56:43.493Z,12.57
2023-05-05T04:57:46.310Z,12.57
2023-05-05T04:58:50.562Z,12.63
2023-05-05T04:59:53.530Z,12.64
2023-05-05T05:00:56.452Z,12.68
2023-05-05T05:01:59.322Z,12.78
2023-05-05T05:03:02.554Z,12.82
2023-05-05T05:04:05.742Z,12.83
2023-05-05T05:05:09.615Z,12.90
2023-05-05T05:06:12.821Z,12.91
2023-05-05T05:07:15.778Z,12.92
2023-05-05T05:08:18.971Z,12.97
2023-05-05T05:09:21.873Z,12.98
2023-05-05T05:10:24.816Z,13.01
2023-05-05T05:11:28.100Z,13.04
2023-05-05T05:12:31.220Z,13.07
2023-05-05T05:13:34.481Z,13.10
2023-05-05T05:14:38.348Z,13.13
2023-05-05T05:15:42.060Z,13.16
2023-05-05T05:16:45.200Z,13.17
2023-05-05T05:17:48.237Z,13.26
2023-05-05T05:18:51.149Z,13.26
2023-05-05T05:19:55.461Z,13.36
2023-05-05T05:20:58.636Z,13.35
2023-05-05T05:22:01.840Z,13.42
2023-05-05T05:23:05.661Z,13.42
2023-05-05T05:24:11.645Z,13.46
2023-05-05T05:25:14.705Z,13.52
2023-05-05T05:26:18.311Z,13.55
2023-05-05T05:27:21.234Z,13.59
2023-05-05T05:28:24.735Z,13.63
2023-05-05T05:29:30.966Z,13.63
2023-05-05T05:30:34.413Z,13.68
2023-05-05T05:31:37.956Z,13.76
2023-05-05T05:32:40.962Z,13.81
2023-05-05T05:33:43.993Z,13.85
2023-05-05T05:34:48.045Z,13.90
2023-05-05T05:35:52.270Z,13.96
2023-05-05T05:36:56.174Z,14.09
2023-05-05T05:37:59.179Z,14.11
2023-05-05T05:39:02.276Z,14.16
2023-05-05T05:40:06.142Z,14.23
2023-05-05T05:41:09.312Z,14.28
2023-05-05T05:42:13.042Z,14.34
2023-05-05T05:43:16.399Z,14.39
2023-05-05T05:44:19.267Z,14.43
2023-05-05T05:45:23.341Z,14.48
2023-05-05T05:46:26.260Z,14.54
2023-05-05T05:47:29.247Z,14.60
2023-05-05T05:48:32.666Z,14.67
2023-05-05T05:49:35.610Z,14.76
2023-05-05T05:50:38.516Z,14.83
2023-05-05T05:51:41.467Z,14.86
2023-05-05T05:52:44.509Z,14.91
2023-05-05T05:53:47.271Z,14.95
2023-05-05T05:54:50.299Z,14.97
2023-05-05T05:55:53.185Z,14.98
2023-05-05T05:56:56.126Z,15.01
2023-05-05T05:57:58.958Z,15.03
2023-05-05T05:59:02.777Z,15.06
2023-05-05T06:00:06.681Z,15.09
2023-05-05T06:01:16.023Z,15.09
2023-05-05T06:02:20.991Z,15.10
2023-05-05T06:03:24.433Z,15.12
2023-05-05T06:04:27.505Z,15.15
2023-05-05T06:05:31.458Z,15.17
2023-05-05T06:06:34.750Z,15.21
2023-05-05T06:07:37.720Z,15.29
2023-05-05T06:08:40.813Z,15.37
2023-05-05T06:09:47.261Z,15.45
2023-05-05T06:10:51.046Z,15.48
2023-05-05T06:11:55.320Z,15.48
2023-05-05T06:12:58.281Z,15.50
2023-05-05T06:14:01.510Z,15.58
2023-05-05T06:15:04.830Z,15.65
2023-05-05T06:16:08.012Z,15.72
2023-05-05T06:17:10.993Z,15.76
2023-05-05T06:18:13.932Z,15.81
2023-05-05T06:19:17.149Z,15.85
2023-05-05T06:20:20.375Z,15.91
2023-05-05T06:21:23.493Z,16.00
2023-05-05T06:22:27.322Z,16.08
2023-05-05T06:23:30.440Z,16.08
2023-05-05T06:24:39.990Z,16.15
2023-05-05T06:25:43.335Z,16.16
2023-05-05T06:26:46.155Z,16.24
2023-05-05T06:27:49.046Z,16.34
2023-05-05T06:28:51.909Z,16.43
2023-05-05T06:29:54.776Z,16.55
2023-05-05T06:30:58.283Z,16.67
2023-05-05T06:32:08.392Z,16.81
2023-05-05T06:33:11.361Z,16.94
2023-05-05T06:34:14.298Z,17.03
2023-05-05T06:35:17.309Z,17.08
2023-05-05T06:36:20.201Z,17.13
2023-05-05T06:37:23.215Z,17.24
2023-05-05T06:38:26.800Z,17.35
2023-05-05T06:39:29.827Z,17.46
2023-05-05T06:40:32.779Z,17.57
2023-05-05T06:41:35.700Z,17.65
2023-05-05T06:42:38.560Z,17.73
2023-05-05T06:43:45.160Z,17.76
2023-05-05T06:44:49.578Z,17.85
2023-05-05T06:45:52.415Z,17.98
2023-05-05T06:46:55.368Z,18.18
2023-05-05T06:47:58.332Z,18.40
2023-05-05T06:49:01.194Z,18.63
2023-05-05T06:50:04.490Z,18.84
2023-05-05T06:51:07.601Z,19.06
2023-05-05T06:52:10.759Z,19.27
2023-05-05T06:53:13.667Z,19.39
2023-05-05T06:54:16.745Z,19.44
2023-05-05T06:55:19.672Z,19.55
2023-05-05T06:56:24.092Z,19.68
2023-05-05T06:57:27.292Z,19.75
2023-05-05T06:58:30.148Z,19.87
2023-05-05T06:59:33.018Z,20.04
2023-05-05T07:00:35.971Z,20.15
2023-05-05T07:01:38.873Z,20.27
2023-05-05T07:02:41.864Z,20.32
2023-05-05T07:03:45.069Z,20.36
2023-05-05T07:04:48.056Z,20.39
2023-05-05T07:05:50.937Z,20.42
2023-05-05T07:06:55.336Z,20.47
2023-05-05T07:07:58.335Z,20.52
2023-05-05T07:09:01.253Z,20.57
2023-05-05T07:10:04.707Z,20.59
2023-05-05T07:11:07.552Z,20.65
2023-05-05T07:12:10.530Z,20.73
2023-05-05T07:13:16.485Z,20.81
2023-05-05T07:14:20.611Z,20.84
2023-05-05T07:15:29.156Z,20.93
2023-05-05T07:16:34.848Z,20.97
2023-05-05T07:17:37.833Z,21.10
2023-05-05T07:18:40.830Z,21.28
2023-05-05T07:19:44.354Z,21.42
2023-05-05T07:20:47.970Z,21.54
2023-05-05T07:21:52.174Z,21.62
2023-05-05T07:22:55.151Z,21.72
2023-05-05T07:23:58.076Z,21.90
2023-05-05T07:25:01.192Z,21.91
2023-05-05T07:26:04.252Z,21.96
2023-05-05T07:27:07.561Z,21.99
2023-05-05T07:28:11.125Z,22.01
2023-05-05T07:29:14.034Z,22.07
2023-05-05T07:30:18.694Z,22.09
2023-05-05T07:31:31.336Z,22.03
2023-05-05T07:32:34.816Z,21.97
2023-05-05T07:33:37.758Z,21.99
2023-05-05T07:34:40.717Z,21.93
2023-05-05T07:35:43.558Z,21.91
2023-05-05T07:36:46.966Z,21.95
2023-05-05T07:37:50.000Z,22.11
2023-05-05T07:38:52.956Z,22.16
2023-05-05T07:39:55.810Z,22.19
2023-05-05T07:40:59.058Z,22.26
2023-05-05T07:42:02.055Z,22.34
2023-05-05T07:43:05.147Z,22.41
2023-05-05T07:44:08.868Z,22.49
2023-05-05T07:45:11.741Z,22.55
2023-05-05T07:46:14.916Z,22.55
2023-05-05T07:47:17.796Z,22.55
2023-05-05T07:48:20.828Z,22.50
2023-05-05T07:49:23.715Z,22.46
2023-05-05T07:50:27.228Z,22.44
2023-05-05T07:51:33.280Z,22.37
2023-05-05T07:52:44.954Z,22.32
2023-05-05T07:53:51.028Z,22.32
2023-05-05T07:54:53.942Z,22.38
2023-05-05T07:55:56.805Z,22.43
2023-05-05T07:56:59.828Z,22.47
2023-05-05T07:58:03.855Z,22.50
2023-05-05T07:59:06.705Z,22.55
2023-05-05T08:00:11.033Z,22.62
2023-05-05T08:01:17.358Z,22.68
2023-05-05T08:02:22.090Z,22.71
2023-05-05T08:03:25.363Z,22.71
2023-05-05T08:04:28.463Z,22.72
2023-05-05T08:05:31.399Z,22.71
2023-05-05T08:06:34.648Z,22.69
2023-05-05T08:07:41.342Z,22.66
2023-05-05T08:08:44.549Z,22.70
2023-05-05T08:09:47.399Z,22.78
2023-05-05T08:10:51.701Z,22.88
2023-05-05T08:11:54.537Z,22.92
2023-05-05T08:12:57.409Z,22.85
2023-05-05T08:14:00.296Z,22.75
2023-05-05T08:15:04.350Z,22.71
2023-05-05T08:16:07.481Z,22.73
2023-05-05T08:17:11.194Z,22.80
2023-05-05T08:18:14.465Z,22.80
2023-05-05T08:19:28.083Z,22.76
2023-05-05T08:20:32.156Z,22.70
2023-05-05T08:21:34.967Z,22.63
2023-05-05T08:22:37.858Z,22.61
2023-05-05T08:23:40.863Z,22.62
2023-05-05T08:24:43.722Z,22.64
2023-05-05T08:25:46.649Z,22.65
2023-05-05T08:26:49.607Z,22.62
2023-05-05T08:27:52.645Z,22.57
2023-05-05T08:28:56.854Z,22.53
2023-05-05T08:29:59.696Z,22.43
2023-05-05T08:31:04.447Z,22.31
2023-05-05T08:32:07.416Z,22.25
2023-05-05T08:33:10.286Z,22.25
2023-05-05T08:34:13.250Z,22.25
2023-05-05T08:35:16.306Z,22.21
2023-05-05T08:36:19.275Z,22.14
2023-05-05T08:37:22.285Z,22.07
2023-05-05T08:38:25.259Z,22.00
2023-05-05T08:39:28.173Z,21.92
2023-05-05T08:40:36.574Z,21.91
2023-05-05T08:41:39.525Z,21.92
2023-05-05T08:42:42.847Z,21.95
2023-05-05T08:43:50.535Z,21.98
2023-05-05T08:44:53.407Z,22.02
2023-05-05T08:45:57.357Z,22.10
2023-05-05T08:47:01.956Z,22.09
2023-05-05T08:48:05.815Z,22.10
2023-05-05T08:49:15.386Z,22.11
2023-05-05T08:50:19.275Z,22.14
2023-05-05T08:51:25.990Z,22.14
2023-05-05T08:52:37.436Z,22.13
2023-05-05T08:53:45.924Z,22.14
2023-05-05T08:55:00.929Z,22.15
2023-05-05T08:56:05.018Z,22.14
2023-05-05T08:57:09.601Z,22.11
2023-05-05T08:58:14.007Z,22.11
2023-05-05T08:59:17.488Z,22.12
2023-05-05T09:00:21.284Z,22.09
2023-05-05T09:01:24.328Z,22.04
2023-05-05T09:02:29.988Z,22.00
2023-05-05T09:03:33.929Z,22.03
2023-05-05T09:04:37.173Z,22.02
2023-05-05T09:05:42.145Z,22.04
2023-05-05T09:06:45.115Z,22.08
2023-05-05T09:07:48.085Z,22.10
2023-05-05T09:08:51.322Z,22.15
2023-05-05T09:09:54.348Z,22.19
2023-05-05T09:10:57.485Z,22.18
2023-05-05T09:12:02.010Z,22.15
2023-05-05T09:13:05.969Z,22.11
2023-05-05T09:15:29.474Z,21.88
2023-05-05T09:16:32.339Z,21.81
2023-05-05T09:17:35.316Z,21.81
2023-05-05T09:18:38.373Z,21.88
2023-05-05T09:20:04.715Z,21.99
2023-05-05T09:21:28.128Z,22.10
2023-05-05T09:22:51.395Z,22.21
2023-05-05T09:24:11.371Z,22.31
2023-05-05T09:25:16.982Z,22.33
2023-05-05T09:26:25.364Z,22.33
2023-05-05T09:27:28.480Z,22.36
2023-05-05T09:28:32.311Z,22.39
2023-05-05T09:29:35.392Z,22.40
2023-05-05T09:30:39.756Z,22.34
2023-05-05T09:31:42.863Z,22.29
2023-05-05T09:32:51.235Z,22.26
2023-05-05T09:33:54.186Z,22.23
2023-05-05T09:34:59.175Z,22.17
2023-05-05T09:36:02.007Z,22.15
2023-05-05T09:37:06.419Z,22.16
2023-05-05T09:38:12.430Z,22.14
2023-05-05T09:39:20.338Z,22.07
2023-05-05T09:40:23.232Z,21.96
2023-05-05T09:41:43.859Z,21.86
2023-05-05T09:42:47.489Z,21.84
2023-05-05T09:43:52.137Z,21.83
2023-05-05T09:44:59.689Z,21.82
2023-05-05T09:46:07.980Z,21.83
2023-05-05T09:47:26.020Z,21.86
2023-05-05T09:48:32.456Z,21.95
2023-05-05T09:49:36.870Z,21.99
2023-05-05T09:50:44.323Z,21.91
2023-05-05T09:51:48.276Z,21.83
2023-05-05T09:52:59.235Z,21.76
2023-05-05T09:54:02.180Z,21.68
2023-05-05T09:55:05.495Z,21.56
2023-05-05T09:56:09.016Z,21.46
2023-05-05T09:57:29.487Z,21.39
2023-05-05T09:58:32.461Z,21.31
2023-05-05T09:59:35.737Z,21.28
2023-05-05T10:00:39.685Z,21.29
2023-05-05T10:01:43.878Z,21.37
2023-05-05T10:02:46.956Z,21.41
2023-05-05T10:03:52.233Z,21.54
2023-05-05T10:05:14.786Z,21.72
2023-05-05T10:06:17.852Z,21.90
2023-05-05T10:07:24.205Z,22.09
2023-05-05T10:08:28.720Z,22.24
2023-05-05T10:09:34.323Z,22.30
2023-05-05T10:10:39.995Z,22.36
2023-05-05T10:11:44.794Z,22.48
2023-05-05T10:12:49.812Z,22.58
2023-05-05T10:13:53.541Z,22.64
2023-05-05T10:14:57.608Z,22.63
2023-05-05T10:16:03.422Z,22.62
2023-05-05T10:17:09.079Z,22.61
2023-05-05T10:18:19.234Z,22.56
2023-05-05T10:19:23.899Z,22.48
2023-05-05T10:20:27.253Z,22.51
2023-05-05T10:21:34.442Z,22.52
2023-05-05T10:22:39.412Z,22.57
2023-05-05T10:23:49.642Z,22.65
2023-05-05T10:25:01.816Z,22.72
2023-05-05T10:26:07.739Z,22.72
2023-05-05T10:27:15.757Z,22.79
2023-05-05T10:28:27.123Z,22.85
2023-05-05T10:29:36.070Z,22.92
2023-05-05T10:30:44.304Z,22.98
2023-05-05T10:31:52.383Z,22.94
2023-05-05T10:33:22.292Z,22.87
2023-05-05T10:34:39.933Z,22.82
2023-05-05T10:35:46.869Z,22.75
2023-05-05T10:36:51.015Z,22.70
2023-05-05T10:37:55.529Z,22.74
2023-05-05T10:38:59.966Z,22.78
2023-05-05T10:40:03.644Z,22.81
2023-05-05T10:41:08.254Z,22.76
2023-05-05T10:42:13.430Z,22.76
2023-05-05T10:43:16.841Z,22.83
2023-05-05T10:44:19.916Z,22.91
2023-05-05T10:45:22.758Z,23.05
2023-05-05T10:46:27.372Z,23.09
2023-05-05T10:47:32.053Z,22.96
2023-05-05T10:48:42.411Z,22.80
2023-05-05T10:49:52.243Z,22.73
2023-05-05T10:51:06.243Z,22.74
2023-05-05T10:52:37.831Z,22.71
2023-05-05T10:54:10.455Z,22.60
2023-05-05T10:55:31.577Z,22.48
2023-05-05T10:56:36.137Z,22.45
2023-05-05T10:57:44.294Z,22.48
2023-05-05T10:58:58.864Z,22.55
2023-05-05T11:00:02.432Z,22.69
2023-05-05T11:01:06.980Z,22.82
2023-05-05T11:02:22.781Z,22.92
2023-05-05T11:03:26.281Z,23.05
2023-05-05T11:04:29.281Z,23.17
2023-05-05T11:05:32.556Z,23.27
2023-05-05T11:06:35.516Z,23.34
2023-05-05T11:07:38.838Z,23.33
2023-05-05T11:08:43.704Z,23.23
2023-05-05T11:09:57.767Z,23.10
2023-05-05T11:11:00.918Z,23.12
2023-05-05T11:12:05.544Z,23.24
2023-05-05T11:13:08.511Z,23.33
2023-05-05T11:14:20.071Z,23.34
2023-05-05T11:15:33.564Z,23.28
2023-05-05T11:16:49.987Z,23.25
2023-05-05T11:17:54.495Z,23.21
2023-05-05T11:18:57.521Z,23.19
2023-05-05T11:20:00.390Z,23.28
2023-05-05T11:21:04.670Z,23.26
2023-05-05T11:22:07.540Z,23.24
2023-05-05T11:23:10.394Z,23.19
2023-05-05T11:24:29.506Z,23.16
2023-05-05T11:25:41.169Z,23.11
2023-05-05T11:26:51.910Z,23.12
2023-05-05T11:28:13.743Z,23.12
2023-05-05T11:29:16.685Z,23.09
2023-05-05T11:30:19.590Z,23.07
2023-05-05T11:31:22.798Z,23.06
2023-05-05T11:32:25.711Z,23.09
2023-05-05T11:33:34.027Z,23.13
2023-05-05T11:34:49.088Z,23.19
2023-05-05T11:35:59.058Z,23.22
2023-05-05T11:37:03.390Z,23.09
2023-05-05T11:38:08.317Z,22.96
2023-05-05T11:39:35.517Z,22.82
2023-05-05T11:40:44.430Z,22.68
2023-05-05T11:42:20.277Z,22.64
2023-05-05T11:43:23.233Z,22.58
2023-05-05T11:44:33.622Z,22.54
2023-05-05T11:45:36.962Z,22.50
2023-05-05T11:46:41.256Z,22.46
2023-05-05T11:47:44.261Z,22.35
2023-05-05T11:48:53.024Z,22.18
2023-05-05T11:49:56.363Z,21.94
2023-05-05T11:51:02.407Z,21.65
2023-05-05T11:52:15.132Z,21.45
2023-05-05T11:53:19.352Z,21.33
2023-05-05T11:54:22.472Z,21.23
2023-05-05T11:55:25.646Z,21.13
2023-05-05T11:56:28.656Z,21.05
2023-05-05T11:57:31.731Z,20.92
2023-05-05T11:58:34.619Z,20.79
2023-05-05T11:59:54.899Z,20.68
2023-05-05T12:00:57.789Z,20.64
2023-05-05T12:02:00.844Z,20.62
2023-05-05T12:03:04.563Z,20.60
2023-05-05T12:04:11.459Z,20.61
2023-05-05T12:05:20.007Z,20.59
2023-05-05T12:06:23.558Z,20.60
2023-05-05T12:07:29.087Z,20.61
2023-05-05T12:08:42.203Z,20.63
2023-05-05T12:09:46.476Z,20.68
2023-05-05T12:10:49.332Z,20.67
2023-05-05T12:11:53.537Z,20.68
2023-05-05T12:12:56.596Z,20.71
2023-05-05T12:14:12.090Z,20.69
2023-05-05T12:15:14.979Z,20.58
2023-05-05T12:16:19.520Z,20.47
2023-05-05T12:17:23.452Z,20.38
2023-05-05T12:18:26.341Z,20.28
2023-05-05T12:19:33.160Z,20.18
2023-05-05T12:20:36.740Z,20.13
2023-05-05T12:21:39.579Z,20.11
2023-05-05T12:22:42.603Z,20.05
2023-05-05T12:23:46.022Z,19.97
2023-05-05T12:25:04.754Z,19.88
2023-05-05T12:26:08.110Z,19.78
2023-05-05T12:27:12.173Z,19.71
2023-05-05T12:28:15.158Z,19.65
2023-05-05T12:29:29.173Z,19.62
2023-05-05T12:30:32.157Z,19.64
2023-05-05T12:31:38.874Z,19.66
2023-05-05T12:32:42.353Z,19.70
2023-05-05T12:33:45.957Z,19.73
2023-05-05T12:34:50.548Z,19.72
2023-05-05T12:35:53.583Z,19.69
2023-05-05T12:36:56.516Z,19.68
2023-05-05T12:38:00.001Z,19.65
2023-05-05T12:39:05.341Z,19.61
2023-05-05T12:40:47.210Z,19.58
2023-05-05T12:41:50.626Z,19.54
2023-05-05T12:42:53.788Z,19.52
2023-05-05T12:43:58.487Z,19.47
2023-05-05T12:45:02.020Z,19.47
2023-05-05T12:46:06.727Z,19.47
2023-05-05T12:47:11.241Z,19.52
2023-05-05T12:48:23.471Z,19.54
2023-05-05T12:49:26.426Z,19.56
2023-05-05T12:50:31.516Z,19.57
2023-05-05T12:51:36.729Z,19.51
2023-05-05T12:52:43.163Z,19.40
2023-05-05T12:53:47.691Z,19.37
2023-05-05T12:54:56.884Z,19.39
2023-05-05T12:56:00.149Z,19.41
2023-05-05T12:57:11.490Z,19.40
2023-05-05T12:58:14.364Z,19.40
2023-05-05T12:59:23.435Z,19.40
2023-05-05T13:00:26.734Z,19.44
2023-05-05T13:01:30.227Z,19.49
2023-05-05T13:02:36.046Z,19.47
2023-05-05T13:03:39.077Z,19.49
2023-05-05T13:04:50.547Z,19.54
2023-05-05T13:05:53.529Z,19.53
2023-05-05T13:07:13.900Z,19.51
2023-05-05T13:08:18.624Z,19.53
2023-05-05T13:09:27.102Z,19.58
2023-05-05T13:10:31.268Z,19.63
2023-05-05T13:11:38.893Z,19.68
2023-05-05T13:12:42.200Z,19.85
2023-05-05T13:13:45.078Z,20.03
2023-05-05T13:14:48.034Z,20.29
2023-05-05T13:15:50.940Z,20.54
2023-05-05T13:16:53.992Z,20.75
2023-05-05T13:18:01.331Z,20.90
2023-05-05T13:19:04.509Z,21.00
2023-05-05T13:20:10.323Z,21.08
2023-05-05T13:21:13.401Z,21.15
2023-05-05T13:22:16.424Z,21.25
2023-05-05T13:23:20.001Z,21.25
2023-05-05T13:24:31.662Z,21.26
2023-05-05T13:25:41.444Z,21.33
2023-05-05T13:26:44.985Z,21.42
2023-05-05T13:27:48.600Z,21.51
2023-05-05T13:28:51.596Z,21.54
2023-05-05T13:29:54.490Z,21.53
2023-05-05T13:30:58.767Z,21.48
2023-05-05T13:32:01.683Z,21.40
2023-05-05T13:33:04.625Z,21.37
2023-05-05T13:34:07.489Z,21.32
2023-05-05T13:35:12.142Z,21.20
2023-05-05T13:36:16.308Z,21.02
2023-05-05T13:37:19.229Z,20.89
2023-05-05T13:38:22.089Z,20.72
2023-05-05T13:39:25.129Z,20.57
2023-05-05T13:40:27.953Z,20.49
2023-05-05T13:41:30.853Z,20.38
2023-05-05T13:42:33.757Z,20.26
2023-05-05T13:43:36.604Z,20.11
2023-05-05T13:44:39.467Z,19.96
2023-05-05T13:45:42.360Z,19.84
2023-05-05T13:46:45.409Z,19.71
2023-05-05T13:47:48.405Z,19.57
2023-05-05T13:48:56.031Z,19.44
2023-05-05T13:49:59.429Z,19.33
2023-05-05T13:51:02.241Z,19.23
2023-05-05T13:52:05.392Z,19.13
2023-05-05T13:53:08.620Z,19.06
2023-05-05T13:54:11.754Z,18.96
2023-05-05T13:55:14.725Z,18.88
2023-05-05T13:56:19.178Z,18.83
2023-05-05T13:57:22.117Z,18.78
2023-05-05T13:58:25.438Z,18.69
2023-05-05T13:59:28.370Z,18.58
2023-05-05T14:00:31.804Z,18.52
2023-05-05T14:01:34.897Z,18.49
2023-05-05T14:02:37.956Z,18.44
2023-05-05T14:03:40.903Z,18.40
2023-05-05T14:04:43.758Z,18.38
2023-05-05T14:05:46.832Z,18.42
2023-05-05T14:06:49.730Z,18.49
2023-05-05T14:07:54.257Z,18.57
2023-05-05T14:08:57.125Z,18.59